sensor_id;sensor_type;location;lat;lon;timestamp;temperature;humidity
10472;DHT22;5283;48.876;8.962;2023-08-07T00:01:20;11.40;99.90
10472;DHT22;5283;48.876;8.962;2023-08-07T00:03:47;11.40;99.90
10472;DHT22;5283;48.876;8.962;2023-08-07T00:06:14;11.40;99.90
10472;DHT22;5283;48.876;8.962;2023-08-07T00:08:40;11.50;99.90
10472;DHT22;5283;48.876;8.962;2023-08-07T00:11:08;11.60;99.90
10472;DHT22;5283;48.876;8.962;2023-08-07T00:13:35;11.50;99.90
10472;DHT22;5283;48.876;8.962;2023-08-07T00:16:02;11.50;99.90
10472;DHT22;5283;48.876;8.962;2023-08-07T00:18:29;11.50;99.90
10472;DHT22;5283;48.876;8.962;2023-08-07T00:20:56;11.60;99.90
10472;DHT22;5283;48.876;8.962;2023-08-07T00:23:23;11.60;99.90
10472;DHT22;5283;48.876;8.962;2023-08-07T00:25:50;11.60;99.90
10472;DHT22;5283;48.876;8.962;2023-08-07T00:28:16;11.60;99.90
10472;DHT22;5283;48.876;8.962;2023-08-07T00:30:43;11.60;99.90
10472;DHT22;5283;48.876;8.962;2023-08-07T00:33:10;11.60;99.90
10472;DHT22;5283;48.876;8.962;2023-08-07T00:35:37;11.60;99.90
10472;DHT22;5283;48.876;8.962;2023-08-07T00:38:04;11.70;99.90
10472;DHT22;5283;48.876;8.962;2023-08-07T00:40:38;11.70;99.90
10472;DHT22;5283;48.876;8.962;2023-08-07T00:43:05;11.70;99.90
10472;DHT22;5283;48.876;8.962;2023-08-07T00:45:42;11.70;99.90
10472;DHT22;5283;48.876;8.962;2023-08-07T00:48:10;11.80;99.90
10472;DHT22;5283;48.876;8.962;2023-08-07T00:50:39;11.80;99.90
10472;DHT22;5283;48.876;8.962;2023-08-07T00:53:12;11.80;99.90
10472;DHT22;5283;48.876;8.962;2023-08-07T00:55:38;11.90;99.90
10472;DHT22;5283;48.876;8.962;2023-08-07T00:58:05;11.80;99.90
10472;DHT22;5283;48.876;8.962;2023-08-07T01:00:32;11.80;99.90
10472;DHT22;5283;48.876;8.962;2023-08-07T01:02:59;11.80;99.90
10472;DHT22;5283;48.876;8.962;2023-08-07T01:05:27;11.80;99.90
10472;DHT22;5283;48.876;8.962;2023-08-07T01:07:54;11.70;99.90
10472;DHT22;5283;48.876;8.962;2023-08-07T01:13:08;11.70;99.90
10472;DHT22;5283;48.876;8.962;2023-08-07T01:15:37;11.70;99.90
10472;DHT22;5283;48.876;8.962;2023-08-07T01:18:07;11.70;99.90
10472;DHT22;5283;48.876;8.962;2023-08-07T01:20:34;11.70;99.90
10472;DHT22;5283;48.876;8.962;2023-08-07T01:23:01;11.70;99.90
10472;DHT22;5283;48.876;8.962;2023-08-07T01:25:27;11.70;99.90
10472;DHT22;5283;48.876;8.962;2023-08-07T01:28:10;11.70;99.90
10472;DHT22;5283;48.876;8.962;2023-08-07T01:30:44;11.60;99.90
10472;DHT22;5283;48.876;8.962;2023-08-07T01:33:34;11.70;99.90
10472;DHT22;5283;48.876;8.962;2023-08-07T01:36:06;11.70;99.90
10472;DHT22;5283;48.876;8.962;2023-08-07T01:38:33;11.70;99.90
10472;DHT22;5283;48.876;8.962;2023-08-07T01:41:01;11.70;99.90
10472;DHT22;5283;48.876;8.962;2023-08-07T01:43:29;11.70;99.90
10472;DHT22;5283;48.876;8.962;2023-08-07T01:45:57;11.70;99.90
10472;DHT22;5283;48.876;8.962;2023-08-07T01:48:25;11.70;99.90
10472;DHT22;5283;48.876;8.962;2023-08-07T01:50:53;11.70;99.90
10472;DHT22;5283;48.876;8.962;2023-08-07T01:53:20;11.70;99.90
10472;DHT22;5283;48.876;8.962;2023-08-07T01:55:46;11.70;99.90
10472;DHT22;5283;48.876;8.962;2023-08-07T01:58:13;11.70;99.90
10472;DHT22;5283;48.876;8.962;2023-08-07T02:00:40;11.70;99.90
10472;DHT22;5283;48.876;8.962;2023-08-07T02:03:06;11.70;99.90
10472;DHT22;5283;48.876;8.962;2023-08-07T02:05:33;11.70;99.90
10472;DHT22;5283;48.876;8.962;2023-08-07T02:08:00;11.70;99.90
10472;DHT22;5283;48.876;8.962;2023-08-07T02:10:27;11.70;99.90
10472;DHT22;5283;48.876;8.962;2023-08-07T02:12:57;11.70;99.90
10472;DHT22;5283;48.876;8.962;2023-08-07T02:15:25;11.80;99.90
10472;DHT22;5283;48.876;8.962;2023-08-07T02:17:52;11.70;99.90
10472;DHT22;5283;48.876;8.962;2023-08-07T02:20:19;11.70;99.90
10472;DHT22;5283;48.876;8.962;2023-08-07T02:22:46;11.60;99.90
10472;DHT22;5283;48.876;8.962;2023-08-07T02:25:12;11.60;99.90
10472;DHT22;5283;48.876;8.962;2023-08-07T02:27:39;11.60;99.90
10472;DHT22;5283;48.876;8.962;2023-08-07T02:30:06;11.50;99.90
10472;DHT22;5283;48.876;8.962;2023-08-07T02:32:33;11.50;99.90
10472;DHT22;5283;48.876;8.962;2023-08-07T02:35:00;11.50;99.90
10472;DHT22;5283;48.876;8.962;2023-08-07T02:37:27;11.50;99.90
10472;DHT22;5283;48.876;8.962;2023-08-07T02:39:53;11.50;99.90
10472;DHT22;5283;48.876;8.962;2023-08-07T02:42:20;11.40;99.90
10472;DHT22;5283;48.876;8.962;2023-08-07T02:44:47;11.40;99.90
10472;DHT22;5283;48.876;8.962;2023-08-07T02:47:14;11.30;99.90
10472;DHT22;5283;48.876;8.962;2023-08-07T02:49:40;11.30;99.90
10472;DHT22;5283;48.876;8.962;2023-08-07T02:52:07;11.30;99.90
10472;DHT22;5283;48.876;8.962;2023-08-07T02:54:34;11.30;99.90
10472;DHT22;5283;48.876;8.962;2023-08-07T02:57:00;11.30;99.90
10472;DHT22;5283;48.876;8.962;2023-08-07T02:59:27;11.30;99.90
10472;DHT22;5283;48.876;8.962;2023-08-07T03:01:54;11.30;99.90
10472;DHT22;5283;48.876;8.962;2023-08-07T03:04:21;11.20;99.90
10472;DHT22;5283;48.876;8.962;2023-08-07T03:06:48;11.30;99.90
10472;DHT22;5283;48.876;8.962;2023-08-07T03:09:15;11.40;99.90
10472;DHT22;5283;48.876;8.962;2023-08-07T03:11:42;11.30;99.90
10472;DHT22;5283;48.876;8.962;2023-08-07T03:14:09;11.30;99.90
10472;DHT22;5283;48.876;8.962;2023-08-07T03:16:36;11.30;99.90
10472;DHT22;5283;48.876;8.962;2023-08-07T03:19:02;11.30;99.90
10472;DHT22;5283;48.876;8.962;2023-08-07T03:21:29;11.30;99.90
10472;DHT22;5283;48.876;8.962;2023-08-07T03:23:56;11.40;99.90
10472;DHT22;5283;48.876;8.962;2023-08-07T03:26:22;11.40;99.90
10472;DHT22;5283;48.876;8.962;2023-08-07T03:28:49;11.40;99.90
10472;DHT22;5283;48.876;8.962;2023-08-07T03:31:16;11.40;99.90
10472;DHT22;5283;48.876;8.962;2023-08-07T03:33:43;11.40;99.90
10472;DHT22;5283;48.876;8.962;2023-08-07T03:36:10;11.30;99.90
10472;DHT22;5283;48.876;8.962;2023-08-07T03:38:37;11.30;99.90
10472;DHT22;5283;48.876;8.962;2023-08-07T03:41:03;11.40;99.90
10472;DHT22;5283;48.876;8.962;2023-08-07T03:43:30;11.40;99.90
10472;DHT22;5283;48.876;8.962;2023-08-07T03:45:57;11.40;99.90
10472;DHT22;5283;48.876;8.962;2023-08-07T03:48:25;11.40;99.90
10472;DHT22;5283;48.876;8.962;2023-08-07T03:50:52;11.40;99.90
10472;DHT22;5283;48.876;8.962;2023-08-07T03:53:19;11.40;99.90
10472;DHT22;5283;48.876;8.962;2023-08-07T03:55:50;11.40;99.90
10472;DHT22;5283;48.876;8.962;2023-08-07T03:58:18;11.30;99.90
10472;DHT22;5283;48.876;8.962;2023-08-07T04:00:44;11.30;99.90
10472;DHT22;5283;48.876;8.962;2023-08-07T04:03:11;11.30;99.90
10472;DHT22;5283;48.876;8.962;2023-08-07T04:05:38;11.40;99.90
10472;DHT22;5283;48.876;8.962;2023-08-07T04:08:05;11.40;99.90
10472;DHT22;5283;48.876;8.962;2023-08-07T04:10:31;11.40;99.90
10472;DHT22;5283;48.876;8.962;2023-08-07T04:12:58;11.40;99.90
10472;DHT22;5283;48.876;8.962;2023-08-07T04:15:25;11.50;99.90
10472;DHT22;5283;48.876;8.962;2023-08-07T04:17:53;11.60;99.90
10472;DHT22;5283;48.876;8.962;2023-08-07T04:20:19;11.60;99.90
10472;DHT22;5283;48.876;8.962;2023-08-07T04:22:46;11.60;99.90
10472;DHT22;5283;48.876;8.962;2023-08-07T04:25:13;11.70;99.90
10472;DHT22;5283;48.876;8.962;2023-08-07T04:27:40;11.70;99.90
10472;DHT22;5283;48.876;8.962;2023-08-07T04:30:07;11.70;99.90
10472;DHT22;5283;48.876;8.962;2023-08-07T04:32:34;11.80;99.90
10472;DHT22;5283;48.876;8.962;2023-08-07T04:35:01;11.80;99.90
10472;DHT22;5283;48.876;8.962;2023-08-07T04:37:28;11.80;99.90
10472;DHT22;5283;48.876;8.962;2023-08-07T04:39:56;11.80;99.90
10472;DHT22;5283;48.876;8.962;2023-08-07T04:42:23;11.80;99.90
10472;DHT22;5283;48.876;8.962;2023-08-07T04:44:50;11.80;99.90
10472;DHT22;5283;48.876;8.962;2023-08-07T04:47:17;11.80;99.90
10472;DHT22;5283;48.876;8.962;2023-08-07T04:49:43;11.80;99.90
10472;DHT22;5283;48.876;8.962;2023-08-07T04:52:10;11.80;99.90
10472;DHT22;5283;48.876;8.962;2023-08-07T04:54:42;11.80;99.90
10472;DHT22;5283;48.876;8.962;2023-08-07T04:57:09;11.80;99.90
10472;DHT22;5283;48.876;8.962;2023-08-07T04:59:36;11.80;99.90
10472;DHT22;5283;48.876;8.962;2023-08-07T05:02:03;11.80;99.90
10472;DHT22;5283;48.876;8.962;2023-08-07T05:04:30;11.80;99.90
10472;DHT22;5283;48.876;8.962;2023-08-07T05:06:56;11.80;99.90
10472;DHT22;5283;48.876;8.962;2023-08-07T05:09:23;11.90;99.90
10472;DHT22;5283;48.876;8.962;2023-08-07T05:11:50;11.90;99.90
10472;DHT22;5283;48.876;8.962;2023-08-07T05:14:16;12.00;99.90
10472;DHT22;5283;48.876;8.962;2023-08-07T05:16:43;12.00;99.90
10472;DHT22;5283;48.876;8.962;2023-08-07T05:19:10;12.10;99.90
10472;DHT22;5283;48.876;8.962;2023-08-07T05:21:37;12.10;99.90
10472;DHT22;5283;48.876;8.962;2023-08-07T05:24:04;12.20;99.90
10472;DHT22;5283;48.876;8.962;2023-08-07T05:26:31;12.30;99.90
10472;DHT22;5283;48.876;8.962;2023-08-07T05:28:58;12.40;99.90
10472;DHT22;5283;48.876;8.962;2023-08-07T05:31:25;12.40;99.90
10472;DHT22;5283;48.876;8.962;2023-08-07T05:33:53;12.60;99.90
10472;DHT22;5283;48.876;8.962;2023-08-07T05:36:20;12.70;99.90
10472;DHT22;5283;48.876;8.962;2023-08-07T05:38:46;12.80;99.90
10472;DHT22;5283;48.876;8.962;2023-08-07T05:41:13;13.10;99.90
10472;DHT22;5283;48.876;8.962;2023-08-07T05:43:40;13.10;99.90
10472;DHT22;5283;48.876;8.962;2023-08-07T05:46:06;13.00;99.90
10472;DHT22;5283;48.876;8.962;2023-08-07T05:48:33;12.90;99.90
10472;DHT22;5283;48.876;8.962;2023-08-07T05:51:00;12.90;99.90
10472;DHT22;5283;48.876;8.962;2023-08-07T05:53:27;12.80;99.90
10472;DHT22;5283;48.876;8.962;2023-08-07T05:55:54;12.70;99.90
10472;DHT22;5283;48.876;8.962;2023-08-07T05:58:21;12.70;99.90
10472;DHT22;5283;48.876;8.962;2023-08-07T06:00:48;12.70;99.90
10472;DHT22;5283;48.876;8.962;2023-08-07T06:03:14;12.70;99.90
10472;DHT22;5283;48.876;8.962;2023-08-07T06:05:41;12.70;99.90
10472;DHT22;5283;48.876;8.962;2023-08-07T06:08:08;12.70;99.90
10472;DHT22;5283;48.876;8.962;2023-08-07T06:10:35;12.80;99.90
10472;DHT22;5283;48.876;8.962;2023-08-07T06:13:02;12.90;99.90
10472;DHT22;5283;48.876;8.962;2023-08-07T06:15:32;12.90;99.90
10472;DHT22;5283;48.876;8.962;2023-08-07T06:17:58;12.90;99.90
10472;DHT22;5283;48.876;8.962;2023-08-07T06:20:25;13.00;99.90
10472;DHT22;5283;48.876;8.962;2023-08-07T06:22:52;13.20;99.90
10472;DHT22;5283;48.876;8.962;2023-08-07T06:25:19;13.30;99.90
10472;DHT22;5283;48.876;8.962;2023-08-07T06:27:46;13.60;99.90
10472;DHT22;5283;48.876;8.962;2023-08-07T06:30:12;14.10;99.90
10472;DHT22;5283;48.876;8.962;2023-08-07T06:32:40;14.80;99.90
10472;DHT22;5283;48.876;8.962;2023-08-07T06:35:07;15.10;99.90
10472;DHT22;5283;48.876;8.962;2023-08-07T06:37:34;15.30;99.90
10472;DHT22;5283;48.876;8.962;2023-08-07T06:40:01;15.40;99.90
10472;DHT22;5283;48.876;8.962;2023-08-07T06:42:29;15.00;99.90
10472;DHT22;5283;48.876;8.962;2023-08-07T06:44:56;14.90;99.90
10472;DHT22;5283;48.876;8.962;2023-08-07T06:47:23;14.40;99.90
10472;DHT22;5283;48.876;8.962;2023-08-07T06:49:50;14.00;99.90
10472;DHT22;5283;48.876;8.962;2023-08-07T06:52:16;14.00;99.90
10472;DHT22;5283;48.876;8.962;2023-08-07T06:54:43;14.10;99.90
10472;DHT22;5283;48.876;8.962;2023-08-07T06:57:10;14.30;99.90
10472;DHT22;5283;48.876;8.962;2023-08-07T06:59:36;14.20;99.90
10472;DHT22;5283;48.876;8.962;2023-08-07T07:02:05;14.30;99.90
10472;DHT22;5283;48.876;8.962;2023-08-07T07:04:32;14.10;99.90
10472;DHT22;5283;48.876;8.962;2023-08-07T07:06:59;14.00;99.90
10472;DHT22;5283;48.876;8.962;2023-08-07T07:09:26;13.80;99.90
10472;DHT22;5283;48.876;8.962;2023-08-07T07:11:55;13.80;99.90
10472;DHT22;5283;48.876;8.962;2023-08-07T07:14:23;13.70;99.90
10472;DHT22;5283;48.876;8.962;2023-08-07T07:16:49;13.60;99.90
10472;DHT22;5283;48.876;8.962;2023-08-07T07:19:16;13.60;99.90
10472;DHT22;5283;48.876;8.962;2023-08-07T07:21:43;13.80;99.90
10472;DHT22;5283;48.876;8.962;2023-08-07T07:24:10;13.80;99.90
10472;DHT22;5283;48.876;8.962;2023-08-07T07:26:37;13.90;99.90
10472;DHT22;5283;48.876;8.962;2023-08-07T07:29:04;14.10;99.90
10472;DHT22;5283;48.876;8.962;2023-08-07T07:31:31;14.30;99.90
10472;DHT22;5283;48.876;8.962;2023-08-07T07:33:57;14.60;99.90
10472;DHT22;5283;48.876;8.962;2023-08-07T07:36:24;15.30;99.90
10472;DHT22;5283;48.876;8.962;2023-08-07T07:38:51;15.50;99.90
10472;DHT22;5283;48.876;8.962;2023-08-07T07:41:17;15.10;99.90
10472;DHT22;5283;48.876;8.962;2023-08-07T07:43:46;14.90;99.90
10472;DHT22;5283;48.876;8.962;2023-08-07T07:46:13;14.70;99.90
10472;DHT22;5283;48.876;8.962;2023-08-07T07:48:40;14.50;99.90
10472;DHT22;5283;48.876;8.962;2023-08-07T07:51:07;14.30;99.90
10472;DHT22;5283;48.876;8.962;2023-08-07T07:53:33;14.00;99.90
10472;DHT22;5283;48.876;8.962;2023-08-07T07:56:00;13.80;99.90
10472;DHT22;5283;48.876;8.962;2023-08-07T07:58:27;13.80;99.90
10472;DHT22;5283;48.876;8.962;2023-08-07T08:00:54;13.80;99.90
10472;DHT22;5283;48.876;8.962;2023-08-07T08:03:21;13.80;99.90
10472;DHT22;5283;48.876;8.962;2023-08-07T08:05:51;13.90;99.90
10472;DHT22;5283;48.876;8.962;2023-08-07T08:08:18;13.90;99.90
10472;DHT22;5283;48.876;8.962;2023-08-07T08:10:46;13.90;99.90
10472;DHT22;5283;48.876;8.962;2023-08-07T08:13:14;14.00;99.90
10472;DHT22;5283;48.876;8.962;2023-08-07T08:15:42;14.20;99.90
10472;DHT22;5283;48.876;8.962;2023-08-07T08:18:09;14.40;99.90
10472;DHT22;5283;48.876;8.962;2023-08-07T08:20:37;14.70;99.90
10472;DHT22;5283;48.876;8.962;2023-08-07T08:23:04;14.90;99.90
10472;DHT22;5283;48.876;8.962;2023-08-07T08:25:31;15.30;99.90
10472;DHT22;5283;48.876;8.962;2023-08-07T08:27:59;15.50;99.90
10472;DHT22;5283;48.876;8.962;2023-08-07T08:30:29;15.70;99.90
10472;DHT22;5283;48.876;8.962;2023-08-07T08:32:56;15.70;99.90
10472;DHT22;5283;48.876;8.962;2023-08-07T08:35:23;15.70;99.90
10472;DHT22;5283;48.876;8.962;2023-08-07T08:37:49;15.60;99.90
10472;DHT22;5283;48.876;8.962;2023-08-07T08:40:16;15.90;99.90
10472;DHT22;5283;48.876;8.962;2023-08-07T08:42:44;16.30;99.90
10472;DHT22;5283;48.876;8.962;2023-08-07T08:45:13;16.30;99.90
10472;DHT22;5283;48.876;8.962;2023-08-07T08:47:42;16.60;99.90
10472;DHT22;5283;48.876;8.962;2023-08-07T08:50:12;16.60;99.90
10472;DHT22;5283;48.876;8.962;2023-08-07T08:52:42;16.40;99.90
10472;DHT22;5283;48.876;8.962;2023-08-07T08:55:10;16.40;99.90
10472;DHT22;5283;48.876;8.962;2023-08-07T08:57:38;15.80;99.90
10472;DHT22;5283;48.876;8.962;2023-08-07T09:00:07;16.20;99.90
10472;DHT22;5283;48.876;8.962;2023-08-07T09:02:50;16.10;99.90
10472;DHT22;5283;48.876;8.962;2023-08-07T09:05:19;16.10;99.90
10472;DHT22;5283;48.876;8.962;2023-08-07T09:07:49;15.90;99.90
10472;DHT22;5283;48.876;8.962;2023-08-07T09:10:16;15.90;99.90
10472;DHT22;5283;48.876;8.962;2023-08-07T09:12:55;15.80;99.90
10472;DHT22;5283;48.876;8.962;2023-08-07T09:15:23;15.70;99.90
10472;DHT22;5283;48.876;8.962;2023-08-07T09:17:51;15.60;99.90
10472;DHT22;5283;48.876;8.962;2023-08-07T09:20:19;15.80;99.90
10472;DHT22;5283;48.876;8.962;2023-08-07T09:22:46;15.80;99.90
10472;DHT22;5283;48.876;8.962;2023-08-07T09:25:12;16.00;99.90
10472;DHT22;5283;48.876;8.962;2023-08-07T09:27:39;16.00;99.90
10472;DHT22;5283;48.876;8.962;2023-08-07T09:30:07;15.70;99.90
10472;DHT22;5283;48.876;8.962;2023-08-07T09:32:36;16.00;99.90
10472;DHT22;5283;48.876;8.962;2023-08-07T09:35:04;16.30;99.90
10472;DHT22;5283;48.876;8.962;2023-08-07T09:37:31;16.20;99.90
10472;DHT22;5283;48.876;8.962;2023-08-07T09:40:01;16.30;99.90
10472;DHT22;5283;48.876;8.962;2023-08-07T09:42:31;16.40;99.90
10472;DHT22;5283;48.876;8.962;2023-08-07T09:45:00;16.50;99.90
10472;DHT22;5283;48.876;8.962;2023-08-07T09:47:27;16.40;99.90
10472;DHT22;5283;48.876;8.962;2023-08-07T09:49:55;16.30;99.90
10472;DHT22;5283;48.876;8.962;2023-08-07T09:52:24;16.30;99.90
10472;DHT22;5283;48.876;8.962;2023-08-07T09:54:51;16.30;99.90
10472;DHT22;5283;48.876;8.962;2023-08-07T09:57:17;16.50;99.90
10472;DHT22;5283;48.876;8.962;2023-08-07T09:59:49;16.80;99.90
10472;DHT22;5283;48.876;8.962;2023-08-07T10:02:17;17.40;99.90
10472;DHT22;5283;48.876;8.962;2023-08-07T10:04:43;17.80;99.90
10472;DHT22;5283;48.876;8.962;2023-08-07T10:07:11;17.70;99.90
10472;DHT22;5283;48.876;8.962;2023-08-07T10:09:39;17.60;99.90
10472;DHT22;5283;48.876;8.962;2023-08-07T10:12:07;17.60;99.90
10472;DHT22;5283;48.876;8.962;2023-08-07T10:14:34;17.90;99.90
10472;DHT22;5283;48.876;8.962;2023-08-07T10:17:01;17.60;99.90
10472;DHT22;5283;48.876;8.962;2023-08-07T10:19:28;16.80;99.90
10472;DHT22;5283;48.876;8.962;2023-08-07T10:21:55;16.50;99.90
10472;DHT22;5283;48.876;8.962;2023-08-07T10:24:23;16.40;99.90
10472;DHT22;5283;48.876;8.962;2023-08-07T10:26:51;16.10;99.90
10472;DHT22;5283;48.876;8.962;2023-08-07T10:29:20;16.00;99.90
10472;DHT22;5283;48.876;8.962;2023-08-07T10:31:51;16.10;99.90
10472;DHT22;5283;48.876;8.962;2023-08-07T10:34:19;16.40;99.90
10472;DHT22;5283;48.876;8.962;2023-08-07T10:36:46;16.70;99.90
10472;DHT22;5283;48.876;8.962;2023-08-07T10:39:13;17.20;99.90
10472;DHT22;5283;48.876;8.962;2023-08-07T10:41:46;17.60;99.90
10472;DHT22;5283;48.876;8.962;2023-08-07T10:44:24;18.00;99.90
10472;DHT22;5283;48.876;8.962;2023-08-07T10:46:55;18.10;99.90
10472;DHT22;5283;48.876;8.962;2023-08-07T10:49:41;17.60;99.90
10472;DHT22;5283;48.876;8.962;2023-08-07T10:52:12;17.20;99.90
10472;DHT22;5283;48.876;8.962;2023-08-07T10:54:47;17.00;99.90
10472;DHT22;5283;48.876;8.962;2023-08-07T10:57:17;16.60;99.90
10472;DHT22;5283;48.876;8.962;2023-08-07T10:59:48;16.40;99.90
10472;DHT22;5283;48.876;8.962;2023-08-07T11:02:23;16.40;99.90
10472;DHT22;5283;48.876;8.962;2023-08-07T11:04:54;16.60;99.90
10472;DHT22;5283;48.876;8.962;2023-08-07T11:07:29;16.70;99.90
10472;DHT22;5283;48.876;8.962;2023-08-07T11:09:57;16.90;99.90
10472;DHT22;5283;48.876;8.962;2023-08-07T11:12:27;16.90;99.90
10472;DHT22;5283;48.876;8.962;2023-08-07T11:14:55;16.80;99.90
10472;DHT22;5283;48.876;8.962;2023-08-07T11:17:26;16.80;99.90
10472;DHT22;5283;48.876;8.962;2023-08-07T11:19:54;16.80;99.90
10472;DHT22;5283;48.876;8.962;2023-08-07T11:22:22;17.00;99.90
10472;DHT22;5283;48.876;8.962;2023-08-07T11:24:50;17.00;99.90
10472;DHT22;5283;48.876;8.962;2023-08-07T11:27:17;16.70;99.90
10472;DHT22;5283;48.876;8.962;2023-08-07T11:29:48;16.60;99.90
10472;DHT22;5283;48.876;8.962;2023-08-07T11:32:15;16.30;99.90
10472;DHT22;5283;48.876;8.962;2023-08-07T11:34:49;16.10;99.90
10472;DHT22;5283;48.876;8.962;2023-08-07T11:37:17;16.00;99.90
10472;DHT22;5283;48.876;8.962;2023-08-07T11:39:44;16.00;99.90
10472;DHT22;5283;48.876;8.962;2023-08-07T11:42:11;16.10;99.90
10472;DHT22;5283;48.876;8.962;2023-08-07T11:44:38;16.20;99.90
10472;DHT22;5283;48.876;8.962;2023-08-07T11:47:06;16.40;99.90
10472;DHT22;5283;48.876;8.962;2023-08-07T11:49:33;16.30;99.90
10472;DHT22;5283;48.876;8.962;2023-08-07T11:52:00;16.50;99.90
10472;DHT22;5283;48.876;8.962;2023-08-07T11:54:27;16.60;99.90
10472;DHT22;5283;48.876;8.962;2023-08-07T11:56:54;16.80;99.90
10472;DHT22;5283;48.876;8.962;2023-08-07T11:59:21;17.00;99.90
10472;DHT22;5283;48.876;8.962;2023-08-07T12:01:48;16.90;99.90
10472;DHT22;5283;48.876;8.962;2023-08-07T12:04:17;16.60;99.90
10472;DHT22;5283;48.876;8.962;2023-08-07T12:06:55;16.30;99.90
10472;DHT22;5283;48.876;8.962;2023-08-07T12:09:22;16.40;99.90
10472;DHT22;5283;48.876;8.962;2023-08-07T12:11:48;16.60;99.90
10472;DHT22;5283;48.876;8.962;2023-08-07T12:14:16;16.90;99.90
10472;DHT22;5283;48.876;8.962;2023-08-07T12:16:44;16.90;99.90
10472;DHT22;5283;48.876;8.962;2023-08-07T12:19:14;17.20;99.90
10472;DHT22;5283;48.876;8.962;2023-08-07T12:21:42;17.20;99.90
10472;DHT22;5283;48.876;8.962;2023-08-07T12:24:10;17.30;99.90
10472;DHT22;5283;48.876;8.962;2023-08-07T12:26:36;17.00;99.90
10472;DHT22;5283;48.876;8.962;2023-08-07T12:29:03;17.00;99.90
10472;DHT22;5283;48.876;8.962;2023-08-07T12:31:30;17.40;99.90
10472;DHT22;5283;48.876;8.962;2023-08-07T12:33:57;17.90;99.90
10472;DHT22;5283;48.876;8.962;2023-08-07T12:36:43;18.00;99.90
10472;DHT22;5283;48.876;8.962;2023-08-07T12:39:10;18.50;99.90
10472;DHT22;5283;48.876;8.962;2023-08-07T12:41:37;18.70;99.90
10472;DHT22;5283;48.876;8.962;2023-08-07T12:44:06;18.20;99.90
10472;DHT22;5283;48.876;8.962;2023-08-07T12:46:33;18.40;99.90
10472;DHT22;5283;48.876;8.962;2023-08-07T12:49:01;17.90;99.90
10472;DHT22;5283;48.876;8.962;2023-08-07T12:51:27;17.70;99.90
10472;DHT22;5283;48.876;8.962;2023-08-07T12:53:54;17.50;99.90
10472;DHT22;5283;48.876;8.962;2023-08-07T12:56:21;17.20;99.90
10472;DHT22;5283;48.876;8.962;2023-08-07T12:58:47;17.20;99.90
10472;DHT22;5283;48.876;8.962;2023-08-07T13:01:14;17.50;99.90
10472;DHT22;5283;48.876;8.962;2023-08-07T13:03:41;17.20;99.90
10472;DHT22;5283;48.876;8.962;2023-08-07T13:06:08;17.40;99.90
10472;DHT22;5283;48.876;8.962;2023-08-07T13:08:35;17.70;99.90
10472;DHT22;5283;48.876;8.962;2023-08-07T13:11:02;17.80;99.90
10472;DHT22;5283;48.876;8.962;2023-08-07T13:13:29;18.00;99.90
10472;DHT22;5283;48.876;8.962;2023-08-07T13:15:57;18.00;99.90
10472;DHT22;5283;48.876;8.962;2023-08-07T13:18:24;18.30;99.90
10472;DHT22;5283;48.876;8.962;2023-08-07T13:20:51;19.00;99.90
10472;DHT22;5283;48.876;8.962;2023-08-07T13:23:17;19.10;99.90
10472;DHT22;5283;48.876;8.962;2023-08-07T13:25:44;18.90;99.90
10472;DHT22;5283;48.876;8.962;2023-08-07T13:28:11;18.50;99.90
10472;DHT22;5283;48.876;8.962;2023-08-07T13:30:37;18.40;99.90
10472;DHT22;5283;48.876;8.962;2023-08-07T13:33:04;18.30;99.90
10472;DHT22;5283;48.876;8.962;2023-08-07T13:35:31;18.00;99.90
10472;DHT22;5283;48.876;8.962;2023-08-07T13:37:59;18.00;99.90
10472;DHT22;5283;48.876;8.962;2023-08-07T13:40:35;18.40;99.90
10472;DHT22;5283;48.876;8.962;2023-08-07T13:43:02;18.90;99.90
10472;DHT22;5283;48.876;8.962;2023-08-07T13:45:36;18.60;99.90
10472;DHT22;5283;48.876;8.962;2023-08-07T13:48:03;18.30;99.90
10472;DHT22;5283;48.876;8.962;2023-08-07T13:50:30;18.30;99.90
10472;DHT22;5283;48.876;8.962;2023-08-07T13:52:57;18.70;99.90
10472;DHT22;5283;48.876;8.962;2023-08-07T13:55:29;18.80;99.90
10472;DHT22;5283;48.876;8.962;2023-08-07T13:57:56;19.20;99.90
10472;DHT22;5283;48.876;8.962;2023-08-07T14:00:23;19.50;99.90
10472;DHT22;5283;48.876;8.962;2023-08-07T14:02:49;19.00;99.90
10472;DHT22;5283;48.876;8.962;2023-08-07T14:05:16;18.60;99.90
10472;DHT22;5283;48.876;8.962;2023-08-07T14:07:43;18.00;99.90
10472;DHT22;5283;48.876;8.962;2023-08-07T14:10:10;17.90;99.90
10472;DHT22;5283;48.876;8.962;2023-08-07T14:12:37;18.10;99.90
10472;DHT22;5283;48.876;8.962;2023-08-07T14:15:04;18.40;99.90
10472;DHT22;5283;48.876;8.962;2023-08-07T14:17:31;18.10;99.90
10472;DHT22;5283;48.876;8.962;2023-08-07T14:19:58;18.30;99.90
10472;DHT22;5283;48.876;8.962;2023-08-07T14:22:25;18.70;99.90
10472;DHT22;5283;48.876;8.962;2023-08-07T14:24:54;19.00;99.90
10472;DHT22;5283;48.876;8.962;2023-08-07T14:27:21;19.30;99.90
10472;DHT22;5283;48.876;8.962;2023-08-07T14:29:48;19.30;99.90
10472;DHT22;5283;48.876;8.962;2023-08-07T14:32:15;19.30;99.90
10472;DHT22;5283;48.876;8.962;2023-08-07T14:34:42;19.00;99.90
10472;DHT22;5283;48.876;8.962;2023-08-07T14:37:08;18.90;99.90
10472;DHT22;5283;48.876;8.962;2023-08-07T14:39:35;18.90;99.90
10472;DHT22;5283;48.876;8.962;2023-08-07T14:42:02;18.30;99.90
10472;DHT22;5283;48.876;8.962;2023-08-07T14:44:29;18.20;99.90
10472;DHT22;5283;48.876;8.962;2023-08-07T14:46:56;17.90;99.90
10472;DHT22;5283;48.876;8.962;2023-08-07T14:49:23;17.70;99.90
10472;DHT22;5283;48.876;8.962;2023-08-07T14:52:08;17.50;99.90
10472;DHT22;5283;48.876;8.962;2023-08-07T14:54:35;17.30;99.90
10472;DHT22;5283;48.876;8.962;2023-08-07T14:57:02;17.20;99.90
10472;DHT22;5283;48.876;8.962;2023-08-07T14:59:29;17.10;99.90
10472;DHT22;5283;48.876;8.962;2023-08-07T15:01:56;17.00;99.90
10472;DHT22;5283;48.876;8.962;2023-08-07T15:04:23;16.90;99.90
10472;DHT22;5283;48.876;8.962;2023-08-07T15:06:50;17.00;99.90
10472;DHT22;5283;48.876;8.962;2023-08-07T15:09:17;17.10;99.90
10472;DHT22;5283;48.876;8.962;2023-08-07T15:11:46;17.20;99.90
10472;DHT22;5283;48.876;8.962;2023-08-07T15:14:13;17.70;99.90
10472;DHT22;5283;48.876;8.962;2023-08-07T15:16:40;18.10;99.90
10472;DHT22;5283;48.876;8.962;2023-08-07T15:19:07;18.20;99.90
10472;DHT22;5283;48.876;8.962;2023-08-07T15:21:34;18.50;99.90
10472;DHT22;5283;48.876;8.962;2023-08-07T15:24:01;18.80;99.90
10472;DHT22;5283;48.876;8.962;2023-08-07T15:26:28;18.80;99.90
10472;DHT22;5283;48.876;8.962;2023-08-07T15:28:55;18.70;99.90
10472;DHT22;5283;48.876;8.962;2023-08-07T15:31:21;18.20;99.90
10472;DHT22;5283;48.876;8.962;2023-08-07T15:33:48;18.30;99.90
10472;DHT22;5283;48.876;8.962;2023-08-07T15:36:17;18.40;99.90
10472;DHT22;5283;48.876;8.962;2023-08-07T15:38:44;18.50;99.90
10472;DHT22;5283;48.876;8.962;2023-08-07T15:41:13;18.60;99.90
10472;DHT22;5283;48.876;8.962;2023-08-07T15:43:40;18.50;99.90
10472;DHT22;5283;48.876;8.962;2023-08-07T15:46:07;18.30;99.90
10472;DHT22;5283;48.876;8.962;2023-08-07T15:48:34;18.30;99.90
10472;DHT22;5283;48.876;8.962;2023-08-07T15:51:01;18.70;99.90